Flight Track Log - Related Links

Times and Time Zones

All times are in EDT time to prevent confusion due to time zone crossing. See the EJA583 flight status page for this flight to view local times or setup timezone preferences in your user account.


Time Position Orientation Groundspeed Altitude Reporting Facility
EDT Latitude Longitude Course Direction KTS MPH feet Rate Location/Type
Thu 11:19:43 AM 37.9833 -108.1144 280° West 241 277 15,600  Level Denver Center
Thu 11:20:45 AM 38.0200 -108.1961 300° West 270 311 17,800 2,032 Climbing Denver Center
Thu 11:21:47 AM 38.0772 -108.1311 42° Northeast 294 338 19,800 1,742 Climbing Denver Center
Thu 11:22:49 AM 38.1122 -108.0358 65° Northeast 306 352 21,400 1,452 Climbing Denver Center
Thu 11:23:51 AM 38.1564 -107.9150 65° Northeast 336 387 22,800 919 Climbing Denver Center
Thu 11:24:00 AM 38.2025 -107.2258 65° Northeast  Level Estimated
Thu 11:24:53 AM 38.1967 -107.7997 66° East 369 425 23,300  Level Denver Center
Thu 11:25:55 AM 38.2444 -107.6628 66° East 379 436 25,400 1,306 Climbing Denver Center
Thu 11:26:57 AM 38.2850 -107.5500 65° Northeast 370 426 26,000 532 Climbing Denver Center
Thu 11:27:59 AM 38.3294 -107.4250 66° East 396 456 26,500 1,161 Climbing Denver Center
Thu 11:29:01 AM 38.3733 -107.2819 69° East 392 451 28,400 1,500 Climbing Denver Center
Thu 11:30:03 AM 38.3850 -107.1414 84° East 379 436 29,600 1,161 Climbing Denver Center
Thu 11:31:05 AM 38.3989 -107.0083 82° East 379 436 30,800 1,104 Climbing Denver Center
Thu 11:32:08 AM 38.4122 -106.8761 83° East 377 434 31,900 1,104 Climbing Denver Center
Thu 11:33:10 AM 38.4258 -106.7467 82° East 372 428 33,100 1,113 Climbing Denver Center
Thu 11:34:12 AM 38.4664 -106.6242 67° East 376 433 34,200 919 Climbing Denver Center
Thu 11:35:14 AM 38.5086 -106.5069 65° Northeast 367 422 35,000 968 Climbing Denver Center
Thu 11:36:16 AM 38.5611 -106.3561 66° East 384 442 36,200 968 Climbing Denver Center
Thu 11:37:18 AM 38.6031 -106.2350 66° East 378 435 37,000 387 Climbing Denver Center
Thu 11:38:20 AM 38.6461 -106.1064 67° East 385 443 37,000  Level Denver Center
Thu 11:39:22 AM 38.6914 -105.9769 66° East 398 458 37,000 387 Level Denver Center
Thu 11:40:24 AM 38.7347 -105.8464 67° East 399 459 37,800 1,161 Climbing Denver Center
Thu 11:41:26 AM 38.7867 -105.6967 66° East 384 442 39,400 1,452 Climbing Denver Center
Thu 11:42:28 AM 38.8281 -105.5753 66° East 375 432 40,800 774 Climbing Denver Center
Thu 11:43:30 AM 38.8681 -105.4550 67° East 369 425 41,000 97 Climbing Denver Center
Thu 11:44:32 AM 38.9108 -105.3278 67° East 384 442 41,000  Level Denver Center
Thu 11:45:34 AM 38.9539 -105.1969 67° East 395 455 41,000  Level Denver Center
Thu 11:46:36 AM 38.9958 -105.0700 67° East 392 451 41,000  Level Denver Center
Thu 11:47:38 AM 39.0461 -104.9186 67° East 387 445 41,000  Level Denver Center
Thu 11:48:41 AM 39.0867 -104.7933 67° East 383 441 41,000  Level Denver Center
Thu 11:49:43 AM 39.1278 -104.6700 67° East 379 436 41,000  Level Denver Center
Thu 11:50:45 AM 39.1686 -104.5450 67° East 381 438 41,000  Level Denver Center
Thu 11:51:47 AM 39.2172 -104.3953 67° East 382 440 41,000  Level Denver Center
Thu 11:52:49 AM 39.2564 -104.2719 68° East 377 434 41,000  Level Denver Center
Thu 11:53:51 AM 39.2958 -104.1492 67° East 373 429 41,000  Level Denver Center
Thu 11:55:05 AM 39.3342 -104.0281 68° East 368 423 41,000  Level Denver Center
Thu 11:56:07 AM 39.3808 -103.8817 68° East 369 425 41,000  Level Denver Center
Thu 11:57:09 AM 39.4122 -103.7831 68° East 372 428 41,000  Level Denver Center
Thu 11:58:12 AM 39.4672 -103.6131 67° East 368 423 41,000  Level Denver Center
Thu 11:59:14 AM 39.5050 -103.4908 68° East 369 425 41,000  Level Denver Center
Thu 12:00:16 PM 39.5442 -103.3689 67° East 367 422 41,000  Level Denver Center
Thu 12:01:17 PM 39.5731 -103.2697 69° East 369 425 41,000  Level Denver Center
Thu 12:02:20 PM 39.6194 -103.1233 68° East 366 421 41,000  Level Denver Center
Thu 12:03:22 PM 39.6642 -102.9761 68° East 368 423 41,000  Level Denver Center
Thu 12:04:24 PM 39.7022 -102.8539 68° East 368 423 41,000  Level Denver Center
Thu 12:05:26 PM 39.7403 -102.7303 68° East 369 425 41,000  Level Denver Center
Thu 12:06:28 PM 39.7792 -102.6025 68° East 368 423 41,000  Level Denver Center
Thu 12:07:30 PM 39.8200 -102.4644 69° East 368 423 41,000  Level Denver Center
Thu 12:08:32 PM 39.8572 -102.3469 68° East 368 423 41,000  Level Denver Center
Thu 12:09:34 PM 39.8919 -102.2272 69° East 370 426 41,000  Level Denver Center
Thu 12:10:36 PM 39.9328 -102.0883 69° East 370 426 41,000  Level Denver Center
Thu 12:11:39 PM 39.9692 -101.9697 68° East 369 425 41,000  Level Denver Center
Thu 12:12:41 PM 40.0100 -101.8292 69° East 370 426 41,000  Level Denver Center
Thu 12:13:43 PM 40.0444 -101.7100 69° East 370 426 41,000  Level Denver Center
Thu 12:14:45 PM 40.0864 -101.5703 69° East 370 426 41,000  Level Denver Center
Thu 12:15:47 PM 40.1214 -101.4481 69° East 373 429 41,000  Level Denver Center
Thu 12:16:49 PM 40.1617 -101.3064 70° East 373 429 41,000  Level Denver Center
Thu 12:17:51 PM 40.1978 -101.1856 69° East 373 429 41,000  Level Denver Center
Thu 12:18:53 PM 40.2375 -101.0444 70° East 372 428 41,000  Level Denver Center
Thu 12:19:55 PM 40.2717 -100.9231 70° East 372 428 41,000  Level Denver Center
Thu 12:20:57 PM 40.3114 -100.7817 70° East 372 428 41,000  Level Denver Center
Thu 12:21:59 PM 40.3458 -100.6606 70° East 373 429 41,000  Level Denver Center
Thu 12:23:01 PM 40.3858 -100.5178 70° East 375 432 41,000  Level Denver Center
Thu 12:24:03 PM 40.4200 -100.3947 70° East 377 434 41,000  Level Denver Center
Thu 12:25:05 PM 40.4594 -100.2550 70° East 370 426 41,000  Level Denver Center
Thu 12:26:07 PM 40.4928 -100.1319 70° East 372 428 41,000  Level Denver Center
Thu 12:27:10 PM 40.5325 -99.9892 70° East 374 430 41,000  Level Denver Center
Thu 12:28:12 PM 40.5664 -99.8669 70° East 374 430 41,000  Level Denver Center
Thu 12:29:14 PM 40.6053 -99.7239 70° East 373 429 41,000  Level Denver Center
Thu 12:30:16 PM 40.6386 -99.6008 70° East 374 430 41,000  Level Denver Center
Thu 12:30:52 PM 40.6600 -99.5292 69° East 375 432 41,000  Level Minneapolis Center
Thu 12:31:54 PM 40.6950 -99.4000 70° East 375 432 41,000  Level Minneapolis Center
Thu 12:32:56 PM 40.7356 -99.2442 71° East 375 432 41,000  Level Minneapolis Center
Thu 12:33:58 PM 40.7664 -99.1131 73° East 375 432 41,000  Level Minneapolis Center
Thu 12:35:00 PM 40.8017 -98.9844 70° East 374 430 41,000  Level Minneapolis Center
Thu 12:36:02 PM 40.8364 -98.8567 70° East 372 428 41,000  Level Minneapolis Center
Thu 12:37:04 PM 40.8692 -98.7261 72° East 373 429 41,000  Level Minneapolis Center
Thu 12:38:06 PM 40.9042 -98.5936 71° East 377 434 41,000  Level Minneapolis Center
Thu 12:39:08 PM 40.9456 -98.4358 71° East 379 436 41,000  Level Minneapolis Center
Thu 12:40:10 PM 40.9719 -98.3311 72° East 378 435 41,000  Level Minneapolis Center
Thu 12:41:13 PM 41.0133 -98.1736 71° East 377 434 41,000  Level Minneapolis Center
Thu 12:42:15 PM 41.0469 -98.0397 72° East 380 437 41,000  Level Minneapolis Center
Thu 12:43:17 PM 41.0794 -97.9081 72° East 379 436 41,000  Level Minneapolis Center
Thu 12:44:19 PM 41.1147 -97.7772 70° East 378 435 41,000  Level Minneapolis Center
Thu 12:45:21 PM 41.1539 -97.6181 72° East 378 435 41,000  Level Minneapolis Center
Thu 12:46:23 PM 41.1869 -97.4850 72° East 379 436 41,000  Level Minneapolis Center
Thu 12:47:25 PM 41.2189 -97.3517 72° East 379 436 41,000  Level Minneapolis Center
Thu 12:48:27 PM 41.2519 -97.2200 71° East 377 434 41,000  Level Minneapolis Center
Thu 12:49:29 PM 41.2842 -97.0864 72° East 378 435 41,000  Level Minneapolis Center
Thu 12:50:31 PM 41.3164 -96.9531 72° East 379 436 41,000  Level Minneapolis Center
Thu 12:51:33 PM 41.3486 -96.8197 72° East 378 435 41,000  Level Minneapolis Center
Thu 12:52:35 PM 41.3875 -96.6581 72° East 381 438 41,000  Level Minneapolis Center
Thu 12:53:37 PM 41.4203 -96.5236 72° East 381 438 41,000  Level Minneapolis Center
Thu 12:54:39 PM 41.4522 -96.3881 73° East 380 437 41,000  Level Minneapolis Center
Thu 12:55:41 PM 41.4861 -96.2442 73° East 379 436 41,000  Level Minneapolis Center
Thu 12:56:44 PM 41.5161 -96.1083 74° East 385 443 41,000  Level Minneapolis Center
Thu 12:57:46 PM 41.5472 -95.9756 73° East 381 438 41,000  Level Minneapolis Center
Thu 12:59:00 PM 41.5797 -95.8375 72° East 384 442 41,000  Level Minneapolis Center
Thu 01:00:02 PM 41.6225 -95.6517 73° East 382 440 41,000  Level Minneapolis Center
Thu 01:01:04 PM 41.6542 -95.5111 73° East 381 438 41,000  Level Minneapolis Center
Thu 01:02:06 PM 41.6847 -95.3767 73° East 380 437 41,000  Level Minneapolis Center
Thu 01:03:08 PM 41.7156 -95.2406 73° East 380 437 41,000  Level Minneapolis Center
Thu 01:04:10 PM 41.7453 -95.1047 74° East 381 438 41,000  Level Minneapolis Center
Thu 01:05:13 PM 41.7767 -94.9678 73° East 383 441 41,000  Level Minneapolis Center
Thu 01:06:15 PM 41.8067 -94.8303 74° East 384 442 41,000  Level Minneapolis Center
Thu 01:07:17 PM 41.8417 -94.6669 74° East 380 437 41,000  Level Minneapolis Center
Thu 01:08:19 PM 41.8719 -94.5286 74° East 386 444 41,000  Level Minneapolis Center
Thu 01:09:21 PM 41.9017 -94.3914 74° East 383 441 41,000  Level Minneapolis Center
Thu 01:10:23 PM 41.9322 -94.2544 73° East 382 440 41,000  Level Minneapolis Center
Thu 01:11:25 PM 41.9603 -94.1169 75° East 383 441 41,000  Level Minneapolis Center
Thu 01:12:27 PM 41.9897 -93.9792 74° East 383 441 41,000  Level Minneapolis Center
Thu 01:13:29 PM 42.0181 -93.8428 74° East 384 442 41,000  Level Minneapolis Center
Thu 01:14:43 PM 42.0211 -93.6739 89° East 385 443 41,000  Level Minneapolis Center
Thu 01:15:46 PM 42.0394 -93.5044 82° East 386 444 41,000  Level Minneapolis Center
Thu 01:16:48 PM 42.0597 -93.3639 79° East 387 445 41,000  Level Minneapolis Center
Thu 01:17:50 PM 42.0800 -93.2228 79° East 387 445 41,000 -48 Level Minneapolis Center
Thu 01:18:52 PM 42.1011 -93.0514 81° East 391 450 40,900 -629 Descending Minneapolis Center
Thu 01:19:54 PM 42.1200 -92.9083 80° East 391 450 39,700 -1,161 Descending Minneapolis Center
Thu 01:20:56 PM 42.1403 -92.7625 79° East 398 458 38,500 -1,161 Descending Minneapolis Center
Thu 01:21:58 PM 42.1589 -92.6167 80° East 400 460 37,300 -1,152 Descending Minneapolis Center
Thu 01:22:35 PM 42.1697 -92.5286 81° East 397 457 36,600 -1,333 Descending Chicago Center
Thu 01:23:37 PM 42.1922 -92.3542 80° East 399 459 35,100 -1,306 Descending Chicago Center
Thu 01:24:39 PM 42.2111 -92.2072 80° East 401 461 33,900 -1,016 Descending Chicago Center
Thu 01:25:41 PM 42.2297 -92.0600 80° East 403 464 33,000 -768 Descending Chicago Center
Thu 01:26:44 PM 42.2483 -91.9064 81° East 416 479 32,300 -816 Descending Chicago Center
Thu 01:27:46 PM 42.2711 -91.7211 81° East 423 487 31,300 -629 Descending Chicago Center
Thu 01:28:48 PM 42.2900 -91.5653 81° East 427 491 31,000 -145 Descending Chicago Center
Thu 01:29:50 PM 42.3092 -91.4075 81° East 432 497 31,000  Level Chicago Center
Thu 01:30:52 PM 42.3267 -91.2533 81° East 426 490 31,000  Level Chicago Center
Thu 01:31:54 PM 42.3481 -91.0675 81° East 424 488 31,000 -484 Level Chicago Center
Thu 01:32:56 PM 42.3664 -90.9131 81° East 422 486 30,000 -919 Descending Chicago Center
Thu 01:33:58 PM 42.3836 -90.7583 81° East 423 487 29,100 -484 Descending Chicago Center
Thu 01:35:00 PM 42.4017 -90.6000 81° East 429 494 29,000 -48 Descending Chicago Center
Thu 01:36:02 PM 42.4186 -90.4436 82° East 427 491 29,000 -532 Level Chicago Center
Thu 01:37:04 PM 42.4389 -90.2567 82° East 423 487 27,900 -480 Descending Chicago Center
Thu 01:38:07 PM 42.4550 -90.1047 82° East 414 476 28,000 48 Climbing Chicago Center
Thu 01:39:09 PM 42.4708 -89.9475 82° East 423 487 28,000  Level Chicago Center
Thu 01:40:11 PM 42.4894 -89.7817 81° East 428 493 28,000  Level Chicago Center
Thu 01:41:13 PM 42.5061 -89.6189 82° East 433 498 28,000 -823 Level Chicago Center
Thu 01:42:15 PM 42.5250 -89.4306 82° East 433 498 26,300 -1,984 Descending Chicago Center
Thu 01:43:17 PM 42.5419 -89.2639 82° East 442 509 23,900 -2,274 Descending Chicago Center
Thu 01:44:19 PM 42.5586 -89.0981 82° East 446 513 21,600 -2,226 Descending Chicago Center
Thu 01:45:21 PM 42.5881 -88.9425 76° East 424 488 19,300 -2,323 Descending Chicago Center
Thu 01:46:23 PM 42.6197 -88.7675 76° East 413 475 16,800 -2,419 Descending Chicago Center
Thu 01:47:25 PM 42.6464 -88.6192 76° East 407 468 14,300 -2,400 Descending Chicago Center
Thu 01:48:28 PM 42.6692 -88.4775 78° East 385 443 11,800 -2,208 Descending Chicago Center
Thu 01:49:30 PM 42.6989 -88.3575 71° East 344 396 9,700 -1,984 Descending Chicago Center
Thu 01:50:32 PM 42.7706 -88.3219 20° North 284 327 7,700 -2,274 Descending Chicago Center
Thu 01:51:34 PM 42.8486 -88.2664 28° Northeast 273 314 5,000 -2,226 Descending Chicago Center
Thu 01:52:36 PM 42.9117 -88.2161 30° Northeast 267 307 3,100 -1,161 Descending Chicago Center
Thu 01:53:38 PM 42.9644 -88.1861 23° Northeast 232 267 2,600 -484 Descending Chicago Center
Thu 01:54:40 PM 43.0119 -88.1700 14° North 195 224 2,100 -532 Descending Chicago Center
Thu 01:55:42 PM 43.0358 -88.1994 318° Northwest 148 170 1,500 -581 Descending Chicago Center
Thu 01:57:00 PM 43.0333 -88.2333 North  Level FlightAware Approximate

Login

Don't have an account? Register now (free) for customized features, flight alerts, and more!